Time;durP1;ratioP1;P1;durP2;ratioP2;P2;SDS_P1;SDS_P2;PMS_P1;PMS_P2;Temp;Humidity;BMP_temperature;BMP_pressure;BME280_temperature;BME280_humidity;BME280_pressure;Samples;Min_cycle;Max_cycle;Signal;HPM_P1;HPM_P2
2023/05/07 00:02:22;;;;;;;3.20;1.70;;;;;;;;;;5021525;28;20451;-45
2023/05/07 00:04:48;;;;;;;2.38;1.70;;;;;;;;;;5020718;28;20032;-46
2023/05/07 00:07:14;;;;;;;3.45;1.67;;;;;;;;;;5023581;28;20048;-43
2023/05/07 00:09:40;;;;;;;4.68;1.88;;;;;;;;;;5024648;28;20030;-42
2023/05/07 00:12:06;;;;;;;5.07;1.73;;;;;;;;;;5021368;28;20603;-42
2023/05/07 00:14:31;;;;;;;2.70;1.70;;;;;;;;;;5024131;28;20433;-44
2023/05/07 00:16:56;;;;;;;4.45;1.75;;;;;;;;;;5022633;28;20029;-43
2023/05/07 00:19:22;;;;;;;1.48;1.35;;;;;;;;;;5016884;28;20050;-45
2023/05/07 00:21:47;;;;;;;2.58;1.85;;;;;;;;;;5023916;28;20410;-45
2023/05/07 00:24:12;;;;;;;3.20;1.88;;;;;;;;;;5019278;28;20078;-45
2023/05/07 00:26:38;;;;;;;2.10;1.77;;;;;;;;;;5022152;28;20375;-42
2023/05/07 00:29:03;;;;;;;5.47;1.67;;;;;;;;;;5022806;28;20025;-45
2023/05/07 00:31:29;;;;;;;2.53;1.83;;;;;;;;;;5023205;28;20045;-44
2023/05/07 00:33:54;;;;;;;2.70;2.08;;;;;;;;;;5025366;28;20440;-44
2023/05/07 00:36:19;;;;;;;4.63;2.05;;;;;;;;;;5024855;28;20049;-42
2023/05/07 00:38:45;;;;;;;2.90;2.20;;;;;;;;;;5023779;28;20112;-42
2023/05/07 00:41:10;;;;;;;2.90;2.10;;;;;;;;;;5024448;28;20045;-42
2023/05/07 00:43:36;;;;;;;2.35;2.00;;;;;;;;;;5022771;28;20475;-42
2023/05/07 00:46:01;;;;;;;3.47;2.03;;;;;;;;;;5022653;28;20105;-43
2023/05/07 00:48:27;;;;;;;2.58;1.98;;;;;;;;;;5022080;28;20030;-43
2023/05/07 00:50:52;;;;;;;3.50;2.28;;;;;;;;;;5024161;28;20144;-43
2023/05/07 00:53:17;;;;;;;3.90;2.53;;;;;;;;;;5023166;28;20112;-45
2023/05/07 00:55:43;;;;;;;3.05;2.33;;;;;;;;;;5023358;28;20044;-42
2023/05/07 00:58:08;;;;;;;2.60;2.08;;;;;;;;;;5022084;28;20121;-44
2023/05/07 01:00:34;;;;;;;2.63;2.28;;;;;;;;;;5022822;28;20055;-45
2023/05/07 01:02:59;;;;;;;2.40;2.20;;;;;;;;;;5022497;28;20021;-48
2023/05/07 01:05:27;;;;;;;5.25;2.33;;;;;;;;;;5021377;28;20045;-45
2023/05/07 01:07:54;;;;;;;1.77;1.67;;;;;;;;;;5023820;28;20040;-43
2023/05/07 01:10:20;;;;;;;1.95;1.80;;;;;;;;;;5023471;28;20462;-43
2023/05/07 01:12:47;;;;;;;5.88;1.85;;;;;;;;;;5022473;28;20087;-44
2023/05/07 01:15:13;;;;;;;1.80;1.70;;;;;;;;;;5022222;28;20528;-39
2023/05/07 01:17:39;;;;;;;2.83;1.80;;;;;;;;;;5025337;28;20038;-44
2023/05/07 01:20:07;;;;;;;2.47;1.88;;;;;;;;;;5023630;28;20037;-42
2023/05/07 01:22:36;;;;;;;2.20;2.00;;;;;;;;;;5019337;28;20041;-43
2023/05/07 01:25:03;;;;;;;3.90;2.20;;;;;;;;;;5024080;28;20057;-42
2023/05/07 01:27:28;;;;;;;2.53;2.08;;;;;;;;;;5024927;28;20053;-43
2023/05/07 01:29:55;;;;;;;4.45;2.30;;;;;;;;;;5024994;28;20025;-42
2023/05/07 01:32:27;;;;;;;3.70;2.00;;;;;;;;;;5022144;28;20494;-44
2023/05/07 01:34:53;;;;;;;9.23;2.22;;;;;;;;;;5023995;28;20037;-42
2023/05/07 01:37:20;;;;;;;5.85;2.03;;;;;;;;;;5023913;28;20544;-42
2023/05/07 01:39:46;;;;;;;3.92;1.75;;;;;;;;;;5020330;28;20073;-43
2023/05/07 01:42:12;;;;;;;2.83;2.00;;;;;;;;;;5021929;28;20982;-42
2023/05/07 01:44:38;;;;;;;7.55;2.13;;;;;;;;;;5023089;28;20021;-41
2023/05/07 01:47:03;;;;;;;2.72;2.10;;;;;;;;;;5020007;28;20096;-42
2023/05/07 01:49:30;;;;;;;3.83;2.20;;;;;;;;;;5024659;28;20060;-45
2023/05/07 01:51:55;;;;;;;4.55;2.00;;;;;;;;;;5022811;28;20065;-42
2023/05/07 01:54:27;;;;;;;3.97;2.15;;;;;;;;;;5020627;28;20529;-42
2023/05/07 01:56:52;;;;;;;2.17;1.60;;;;;;;;;;5022604;28;20047;-42
2023/05/07 01:59:18;;;;;;;2.58;1.55;;;;;;;;;;5020421;28;20487;-43
2023/05/07 02:01:43;;;;;;;2.08;1.58;;;;;;;;;;5019792;28;20589;-43
2023/05/07 02:04:09;;;;;;;2.75;1.73;;;;;;;;;;5019100;28;20026;-41
2023/05/07 02:06:34;;;;;;;3.28;1.65;;;;;;;;;;5022650;28;20091;-48
2023/05/07 02:09:00;;;;;;;3.35;1.70;;;;;;;;;;5020010;28;20033;-42
2023/05/07 02:11:25;;;;;;;8.57;1.90;;;;;;;;;;5023368;28;20041;-44
2023/05/07 02:13:50;;;;;;;3.95;1.90;;;;;;;;;;5021704;28;20017;-42
2023/05/07 02:16:16;;;;;;;2.10;1.75;;;;;;;;;;5020749;28;20045;-44
2023/05/07 02:18:41;;;;;;;3.08;1.77;;;;;;;;;;5021792;28;20037;-44
2023/05/07 02:21:07;;;;;;;4.93;2.00;;;;;;;;;;5020924;28;20042;-51
2023/05/07 02:23:32;;;;;;;2.15;1.77;;;;;;;;;;5020222;28;20025;-48
2023/05/07 02:25:58;;;;;;;3.75;1.52;;;;;;;;;;5023067;28;20071;-50
2023/05/07 02:28:23;;;;;;;5.20;1.50;;;;;;;;;;5023749;28;20026;-45
2023/05/07 02:30:48;;;;;;;3.00;1.63;;;;;;;;;;5021672;28;20049;-46
2023/05/07 02:33:14;;;;;;;2.10;1.83;;;;;;;;;;5021125;28;21688;-49
2023/05/07 02:35:40;;;;;;;1.83;1.70;;;;;;;;;;5021141;28;20126;-48
2023/05/07 02:38:05;;;;;;;1.48;1.38;;;;;;;;;;5018776;28;20056;-44
2023/05/07 02:40:33;;;;;;;4.97;1.75;;;;;;;;;;5021711;28;20033;-48
2023/05/07 02:42:59;;;;;;;1.83;1.45;;;;;;;;;;5020460;28;20025;-50
2023/05/07 02:45:24;;;;;;;1.65;1.55;;;;;;;;;;5021406;28;20029;-42
2023/05/07 02:47:50;;;;;;;3.05;1.60;;;;;;;;;;5020314;28;20028;-46
2023/05/07 02:50:15;;;;;;;4.55;1.50;;;;;;;;;;5021236;28;20036;-49
2023/05/07 02:52:40;;;;;;;3.65;1.75;;;;;;;;;;5023773;28;20029;-47
2023/05/07 02:55:06;;;;;;;3.42;1.80;;;;;;;;;;5022545;28;20025;-46
2023/05/07 02:57:31;;;;;;;1.65;1.55;;;;;;;;;;5021955;28;20125;-49
2023/05/07 02:59:58;;;;;;;1.98;1.73;;;;;;;;;;5020370;28;20036;-47
2023/05/07 03:02:23;;;;;;;2.72;1.60;;;;;;;;;;5019519;28;20046;-42
2023/05/07 03:04:49;;;;;;;4.45;1.55;;;;;;;;;;5020534;28;20032;-47
2023/05/07 03:07:14;;;;;;;3.58;1.65;;;;;;;;;;5022154;28;20065;-48
2023/05/07 03:09:39;;;;;;;6.13;1.70;;;;;;;;;;5024390;28;20029;-47
2023/05/07 03:12:05;;;;;;;6.78;1.77;;;;;;;;;;5020542;28;20132;-48
2023/05/07 03:14:30;;;;;;;1.80;1.65;;;;;;;;;;5019726;28;20057;-46
2023/05/07 03:16:56;;;;;;;5.20;1.60;;;;;;;;;;5018996;28;20076;-50
2023/05/07 03:19:21;;;;;;;2.65;1.40;;;;;;;;;;5020577;28;20048;-50
2023/05/07 03:21:47;;;;;;;2.13;1.50;;;;;;;;;;5022018;28;20061;-48
2023/05/07 03:24:12;;;;;;;4.28;1.63;;;;;;;;;;5025292;28;20033;-42
2023/05/07 03:26:37;;;;;;;1.98;1.60;;;;;;;;;;5021006;28;20061;-48
2023/05/07 03:29:03;;;;;;;2.25;1.60;;;;;;;;;;5025607;28;20038;-42
2023/05/07 03:31:28;;;;;;;3.20;1.75;;;;;;;;;;5024018;28;20056;-44
2023/05/07 03:33:55;;;;;;;4.63;1.75;;;;;;;;;;5025601;28;20036;-46
2023/05/07 03:36:21;;;;;;;3.22;1.67;;;;;;;;;;5024322;28;20072;-48
2023/05/07 03:38:48;;;;;;;2.33;1.80;;;;;;;;;;5022878;28;20481;-42
2023/05/07 03:41:13;;;;;;;3.75;1.52;;;;;;;;;;5022888;28;20036;-46
2023/05/07 03:43:38;;;;;;;2.25;1.65;;;;;;;;;;5024803;28;20144;-48
2023/05/07 03:46:04;;;;;;;2.53;1.60;;;;;;;;;;5025591;28;20088;-48
2023/05/07 03:48:29;;;;;;;2.25;1.80;;;;;;;;;;5026026;28;20065;-42
2023/05/07 03:50:56;;;;;;;3.05;1.50;;;;;;;;;;5021104;28;20038;-43
2023/05/07 03:53:22;;;;;;;2.25;1.95;;;;;;;;;;5023541;28;20064;-47
2023/05/07 03:55:47;;;;;;;3.42;1.73;;;;;;;;;;5024826;28;20072;-43
2023/05/07 03:58:12;;;;;;;1.65;1.55;;;;;;;;;;5021647;28;20054;-44
2023/05/07 04:00:39;;;;;;;2.08;1.90;;;;;;;;;;5026671;28;20037;-46
2023/05/07 04:03:05;;;;;;;2.33;1.88;;;;;;;;;;5025215;28;20081;-46
2023/05/07 04:05:31;;;;;;;5.28;1.90;;;;;;;;;;5022588;28;20045;-44
2023/05/07 04:07:58;;;;;;;2.53;1.50;;;;;;;;;;5021780;28;20033;-43
2023/05/07 04:10:23;;;;;;;2.50;2.00;;;;;;;;;;5025972;28;20061;-43
2023/05/07 04:12:48;;;;;;;3.65;1.88;;;;;;;;;;5023627;28;20057;-41
2023/05/07 04:15:14;;;;;;;4.93;1.90;;;;;;;;;;5022904;28;20039;-43
2023/05/07 04:17:41;;;;;;;6.07;2.10;;;;;;;;;;5025566;28;20072;-45
2023/05/07 04:20:08;;;;;;;6.35;2.17;;;;;;;;;;5024862;28;20036;-42
2023/05/07 04:22:34;;;;;;;8.68;2.22;;;;;;;;;;5023457;28;20042;-45
2023/05/07 04:25:00;;;;;;;2.60;2.20;;;;;;;;;;5021329;28;20053;-44
2023/05/07 04:27:26;;;;;;;2.17;1.90;;;;;;;;;;5023095;28;20042;-43
2023/05/07 04:29:51;;;;;;;5.90;2.40;;;;;;;;;;5025060;28;20104;-40
2023/05/07 04:32:17;;;;;;;3.50;2.38;;;;;;;;;;5021851;28;20049;-42
2023/05/07 04:34:42;;;;;;;4.97;2.10;;;;;;;;;;5021696;28;20087;-48
2023/05/07 04:37:08;;;;;;;8.10;2.08;;;;;;;;;;5023198;28;20509;-44
2023/05/07 04:39:35;;;;;;;5.93;1.92;;;;;;;;;;5024894;28;20026;-41
2023/05/07 04:42:00;;;;;;;3.60;2.17;;;;;;;;;;5018216;28;20080;-40
2023/05/07 04:44:26;;;;;;;3.92;1.92;;;;;;;;;;5024313;28;20431;-41
2023/05/07 04:46:51;;;;;;;3.53;2.03;;;;;;;;;;5022284;28;20029;-46
2023/05/07 04:49:16;;;;;;;9.25;1.83;;;;;;;;;;5026174;28;20029;-45
2023/05/07 04:51:42;;;;;;;3.72;1.75;;;;;;;;;;5020702;28;20052;-50
2023/05/07 04:54:08;;;;;;;4.13;2.00;;;;;;;;;;5022499;28;20033;-45
2023/05/07 04:56:33;;;;;;;5.32;1.70;;;;;;;;;;5022118;28;20096;-41
2023/05/07 04:58:59;;;;;;;3.55;1.92;;;;;;;;;;5019116;28;20048;-46
2023/05/07 05:01:24;;;;;;;3.90;1.92;;;;;;;;;;5023861;28;20049;-41
2023/05/07 05:03:49;;;;;;;2.55;1.67;;;;;;;;;;5023797;28;20520;-44
2023/05/07 05:06:15;;;;;;;3.40;2.03;;;;;;;;;;5020960;28;20046;-42
2023/05/07 05:08:40;;;;;;;3.28;1.95;;;;;;;;;;5023147;28;20037;-47
2023/05/07 05:11:06;;;;;;;2.20;2.00;;;;;;;;;;5021072;28;20038;-43
2023/05/07 05:13:31;;;;;;;1.90;1.75;;;;;;;;;;5019616;28;20022;-49
2023/05/07 05:15:56;;;;;;;2.08;1.67;;;;;;;;;;5023162;28;20513;-45
2023/05/07 05:18:22;;;;;;;5.00;2.08;;;;;;;;;;5024174;28;20112;-43
2023/05/07 05:20:47;;;;;;;2.10;1.80;;;;;;;;;;5022243;28;20040;-42
2023/05/07 05:23:13;;;;;;;3.17;1.70;;;;;;;;;;5025822;28;20036;-47
2023/05/07 05:25:39;;;;;;;5.72;2.30;;;;;;;;;;5020104;28;20053;-42
2023/05/07 05:28:04;;;;;;;2.38;1.70;;;;;;;;;;5025178;28;20432;-43
2023/05/07 05:30:30;;;;;;;2.88;1.85;;;;;;;;;;5020779;28;20029;-43
2023/05/07 05:32:55;;;;;;;2.38;2.00;;;;;;;;;;5023916;28;20048;-41
2023/05/07 05:35:20;;;;;;;4.03;1.90;;;;;;;;;;5019408;28;20045;-47
2023/05/07 05:37:46;;;;;;;2.60;1.80;;;;;;;;;;5022611;28;20037;-42
2023/05/07 05:40:12;;;;;;;3.80;1.80;;;;;;;;;;5021360;28;20105;-42
2023/05/07 05:42:37;;;;;;;2.35;2.00;;;;;;;;;;5021772;28;20037;-42
2023/05/07 05:45:03;;;;;;;2.50;2.00;;;;;;;;;;5022376;28;20612;-40
2023/05/07 05:47:29;;;;;;;2.53;2.03;;;;;;;;;;5020735;28;20038;-47
2023/05/07 05:49:54;;;;;;;6.97;2.17;;;;;;;;;;5022843;28;20056;-43
2023/05/07 05:52:23;;;;;;;3.88;2.10;;;;;;;;;;5023791;28;20127;-47
2023/05/07 05:54:48;;;;;;;2.13;1.92;;;;;;;;;;5023040;28;20033;-45
2023/05/07 05:57:13;;;;;;;4.00;2.08;;;;;;;;;;5021708;28;20038;-43
2023/05/07 05:59:39;;;;;;;2.70;2.25;;;;;;;;;;5022098;28;20041;-43
2023/05/07 06:02:05;;;;;;;3.22;2.92;;;;;;;;;;5021972;28;20433;-41
2023/05/07 06:04:30;;;;;;;8.35;2.13;;;;;;;;;;5020231;28;20108;-47
2023/05/07 06:06:56;;;;;;;6.10;2.10;;;;;;;;;;5020967;28;20042;-43
2023/05/07 06:09:22;;;;;;;2.80;2.10;;;;;;;;;;5019282;28;20025;-45
2023/05/07 06:11:47;;;;;;;2.47;2.28;;;;;;;;;;5021417;28;20034;-46
2023/05/07 06:14:12;;;;;;;2.80;2.50;;;;;;;;;;5023955;28;20179;-47
2023/05/07 06:16:38;;;;;;;4.60;2.10;;;;;;;;;;5020775;28;20394;-44
2023/05/07 06:19:03;;;;;;;5.00;2.17;;;;;;;;;;5021915;28;20030;-44
2023/05/07 06:21:28;;;;;;;4.53;2.50;;;;;;;;;;5020471;28;20104;-47
2023/05/07 06:23:54;;;;;;;4.03;2.50;;;;;;;;;;5017096;28;20026;-45
2023/05/07 06:26:20;;;;;;;2.38;2.17;;;;;;;;;;5022185;28;20107;-41
2023/05/07 06:28:45;;;;;;;6.18;2.70;;;;;;;;;;5021432;28;20057;-41
2023/05/07 06:31:22;;;;;;;2.92;2.30;;;;;;;;;;5024214;28;20030;-48
2023/05/07 06:33:48;;;;;;;3.65;2.88;;;;;;;;;;5023399;28;20386;-44
2023/05/07 06:36:14;;;;;;;3.97;2.53;;;;;;;;;;5020838;28;20034;-40
2023/05/07 06:38:39;;;;;;;3.10;2.30;;;;;;;;;;5019488;28;20026;-47
2023/05/07 06:41:06;;;;;;;4.80;3.08;;;;;;;;;;5020773;28;20505;-47
2023/05/07 06:43:32;;;;;;;5.20;2.95;;;;;;;;;;5022863;28;20074;-46
2023/05/07 06:45:57;;;;;;;4.53;3.33;;;;;;;;;;5022700;28;20037;-43
2023/05/07 06:48:22;;;;;;;4.28;3.03;;;;;;;;;;5021735;28;20474;-44
2023/05/07 06:50:48;;;;;;;3.85;3.33;;;;;;;;;;5018760;28;20041;-41
2023/05/07 06:53:13;;;;;;;6.75;3.65;;;;;;;;;;5025330;28;20037;-51
2023/05/07 06:55:39;;;;;;;6.40;4.20;;;;;;;;;;5023397;28;20390;-44
2023/05/07 06:58:04;;;;;;;4.35;3.95;;;;;;;;;;5027010;28;20064;-45
2023/05/07 07:00:30;;;;;;;4.35;3.88;;;;;;;;;;5024211;28;20398;-46
2023/05/07 07:02:56;;;;;;;4.20;3.75;;;;;;;;;;5025763;28;20045;-46
2023/05/07 07:05:23;;;;;;;10.07;3.95;;;;;;;;;;5024468;28;20073;-47
2023/05/07 07:07:54;;;;;;;6.38;4.05;;;;;;;;;;5026205;28;20026;-46
2023/05/07 07:10:20;;;;;;;4.30;3.90;;;;;;;;;;5024604;28;20050;-49
2023/05/07 07:12:45;;;;;;;7.25;4.30;;;;;;;;;;5026602;28;20477;-51
2023/05/07 07:15:11;;;;;;;4.18;3.75;;;;;;;;;;5025533;28;20419;-42
2023/05/07 07:17:37;;;;;;;5.72;3.70;;;;;;;;;;5025905;28;20038;-49
2023/05/07 07:20:02;;;;;;;4.43;4.03;;;;;;;;;;5027682;28;20084;-49
2023/05/07 07:22:28;;;;;;;4.63;4.10;;;;;;;;;;5025915;28;20079;-47
2023/05/07 07:24:54;;;;;;;6.22;3.80;;;;;;;;;;5024391;28;20033;-50
2023/05/07 07:27:19;;;;;;;4.63;3.83;;;;;;;;;;5025093;28;20517;-47
2023/05/07 07:29:44;;;;;;;7.82;4.15;;;;;;;;;;5023659;28;20065;-50
2023/05/07 07:32:10;;;;;;;5.43;4.07;;;;;;;;;;5021326;28;20037;-47
2023/05/07 07:34:35;;;;;;;4.00;3.60;;;;;;;;;;5026165;28;20032;-49
2023/05/07 07:37:05;;;;;;;4.05;3.75;;;;;;;;;;5023670;28;20030;-49
2023/05/07 07:39:31;;;;;;;4.30;3.40;;;;;;;;;;5026131;28;20029;-47
2023/05/07 07:41:56;;;;;;;3.72;2.83;;;;;;;;;;5021989;28;20052;-43
2023/05/07 07:44:21;;;;;;;5.80;3.22;;;;;;;;;;5024062;28;20029;-49
2023/05/07 07:46:47;;;;;;;7.47;3.10;;;;;;;;;;5022034;28;20057;-45
2023/05/07 07:49:12;;;;;;;3.08;2.88;;;;;;;;;;5021956;28;20024;-47
2023/05/07 07:51:38;;;;;;;4.47;2.42;;;;;;;;;;5023291;28;20072;-45
2023/05/07 07:54:04;;;;;;;4.90;2.45;;;;;;;;;;5022175;28;20033;-43
2023/05/07 07:56:29;;;;;;;8.57;2.00;;;;;;;;;;5020387;28;20045;-44
2023/05/07 07:58:55;;;;;;;3.13;2.10;;;;;;;;;;5023432;28;20413;-44
2023/05/07 08:01:20;;;;;;;2.38;2.17;;;;;;;;;;5021678;28;20046;-45
2023/05/07 08:03:45;;;;;;;2.65;1.80;;;;;;;;;;5022206;28;20072;-47
2023/05/07 08:06:11;;;;;;;2.00;1.60;;;;;;;;;;5021974;28;20517;-46
2023/05/07 08:08:36;;;;;;;2.42;1.88;;;;;;;;;;5021557;28;20029;-43
2023/05/07 08:11:01;;;;;;;3.50;1.83;;;;;;;;;;5018274;28;20091;-44
2023/05/07 08:13:27;;;;;;;1.67;1.58;;;;;;;;;;5022932;28;20037;-46
2023/05/07 08:15:52;;;;;;;3.63;1.88;;;;;;;;;;5020021;28;20040;-49
2023/05/07 08:18:18;;;;;;;2.17;1.52;;;;;;;;;;5022180;28;20043;-47
2023/05/07 08:20:43;;;;;;;2.08;1.90;;;;;;;;;;5021155;28;20036;-49
2023/05/07 08:23:08;;;;;;;2.30;1.70;;;;;;;;;;5024710;28;20037;-47
2023/05/07 08:25:34;;;;;;;2.00;1.38;;;;;;;;;;5017595;28;20129;-49
2023/05/07 08:28:00;;;;;;;2.50;1.48;;;;;;;;;;5022535;28;20063;-43
2023/05/07 08:30:26;;;;;;;3.28;1.75;;;;;;;;;;5021233;28;20029;-46
2023/05/07 08:32:51;;;;;;;1.80;1.30;;;;;;;;;;5025277;28;20025;-46
2023/05/07 08:35:17;;;;;;;3.13;1.52;;;;;;;;;;5018810;28;20040;-47
2023/05/07 08:37:42;;;;;;;2.78;1.40;;;;;;;;;;5023428;28;20025;-42
2023/05/07 08:40:08;;;;;;;1.85;1.40;;;;;;;;;;5020818;28;20559;-49
2023/05/07 08:42:37;;;;;;;1.25;1.25;;;;;;;;;;5019405;28;20033;-44
2023/05/07 08:45:05;;;;;;;1.88;1.75;;;;;;;;;;5021389;28;20022;-46
2023/05/07 08:47:38;;;;;;;1.70;1.60;;;;;;;;;;5020860;28;20040;-48
2023/05/07 08:50:05;;;;;;;1.85;1.67;;;;;;;;;;5021129;28;20111;-51
2023/05/07 08:52:31;;;;;;;3.65;1.98;;;;;;;;;;5022676;28;20037;-50
2023/05/07 08:54:56;;;;;;;8.25;2.05;;;;;;;;;;5023055;28;20032;-45
2023/05/07 08:57:24;;;;;;;2.45;2.17;;;;;;;;;;5020990;28;20033;-51
2023/05/07 08:59:49;;;;;;;4.30;2.25;;;;;;;;;;5022014;28;20041;-50
2023/05/07 09:02:16;;;;;;;4.10;2.80;;;;;;;;;;5022435;28;20421;-51
2023/05/07 09:04:41;;;;;;;3.17;2.95;;;;;;;;;;5017655;28;20056;-47
2023/05/07 09:07:07;;;;;;;5.32;3.35;;;;;;;;;;5020880;28;20505;-46
2023/05/07 09:09:33;;;;;;;4.15;3.30;;;;;;;;;;5020395;28;20033;-44
2023/05/07 09:11:59;;;;;;;3.80;3.50;;;;;;;;;;5021743;28;20041;-43
2023/05/07 09:14:25;;;;;;;5.22;3.78;;;;;;;;;;5022070;28;20158;-42
2023/05/07 09:16:52;;;;;;;3.47;3.20;;;;;;;;;;5019727;28;20065;-41
2023/05/07 09:19:23;;;;;;;5.55;4.45;;;;;;;;;;5017947;28;20040;-45
2023/05/07 09:21:48;;;;;;;6.03;4.43;;;;;;;;;;5022354;28;20037;-42
2023/05/07 09:24:15;;;;;;;19.17;5.72;;;;;;;;;;5024597;28;20021;-43
2023/05/07 09:26:41;;;;;;;5.03;4.43;;;;;;;;;;5025252;28;20048;-41
2023/05/07 09:29:07;;;;;;;4.18;3.75;;;;;;;;;;5023408;28;20022;-43
2023/05/07 09:31:37;;;;;;;7.53;3.75;;;;;;;;;;5021467;28;20145;-41
2023/05/07 09:34:04;;;;;;;5.63;5.13;;;;;;;;;;5018615;28;20037;-44
2023/05/07 09:36:31;;;;;;;3.95;3.50;;;;;;;;;;5022504;28;20163;-39
2023/05/07 09:38:59;;;;;;;3.80;3.42;;;;;;;;;;5018340;28;20047;-45
2023/05/07 09:41:24;;;;;;;3.55;3.13;;;;;;;;;;5023172;28;20033;-43
2023/05/07 09:43:54;;;;;;;8.50;2.95;;;;;;;;;;5023165;28;20496;-45
2023/05/07 09:46:29;;;;;;;3.35;3.05;;;;;;;;;;5018815;28;20037;-43
2023/05/07 09:48:57;;;;;;;4.43;2.97;;;;;;;;;;5021864;28;20076;-41
2023/05/07 09:51:33;;;;;;;2.90;2.42;;;;;;;;;;5019963;28;20091;-41
2023/05/07 09:54:02;;;;;;;6.82;3.33;;;;;;;;;;5019340;28;20714;-40
2023/05/07 09:56:30;;;;;;;2.80;2.60;;;;;;;;;;5018661;28;20095;-41
2023/05/07 09:58:57;;;;;;;2.38;2.15;;;;;;;;;;5020112;28;20508;-41
2023/05/07 10:01:25;;;;;;;4.45;3.10;;;;;;;;;;5021365;28;20038;-41
2023/05/07 10:03:51;;;;;;;4.47;4.00;;;;;;;;;;5024088;28;20056;-42
2023/05/07 10:06:17;;;;;;;3.58;2.72;;;;;;;;;;5019252;28;20034;-42
2023/05/07 10:08:43;;;;;;;3.25;2.95;;;;;;;;;;5019958;28;20040;-41
2023/05/07 10:11:09;;;;;;;2.53;2.33;;;;;;;;;;5020263;28;20046;-41
2023/05/07 10:13:37;;;;;;;5.35;3.95;;;;;;;;;;5019346;28;20033;-41
2023/05/07 10:16:06;;;;;;;2.25;2.05;;;;;;;;;;5023667;28;20124;-43
2023/05/07 10:18:32;;;;;;;2.08;1.98;;;;;;;;;;5018213;28;20125;-43
2023/05/07 10:21:17;;;;;;;3.30;2.13;;;;;;;;;;5020090;28;20057;-41
2023/05/07 10:23:46;;;;;;;9.48;2.30;;;;;;;;;;5021135;28;20057;-42
2023/05/07 10:26:12;;;;;;;4.30;3.83;;;;;;;;;;5020523;28;20045;-41
2023/05/07 10:28:41;;;;;;;8.13;6.03;;;;;;;;;;5019432;28;20061;-45
2023/05/07 10:31:25;;;;;;;2.88;2.67;;;;;;;;;;5022900;28;20121;-42
2023/05/07 10:33:52;;;;;;;3.92;3.00;;;;;;;;;;5022897;28;20595;-41
2023/05/07 10:36:19;;;;;;;3.45;3.03;;;;;;;;;;5025927;28;20145;-43
2023/05/07 10:38:46;;;;;;;3.25;2.97;;;;;;;;;;5027251;28;20037;-43
2023/05/07 10:41:11;;;;;;;2.35;2.13;;;;;;;;;;5024750;28;20041;-46
2023/05/07 10:43:42;;;;;;;4.38;2.17;;;;;;;;;;5024634;28;20044;-44
2023/05/07 10:46:18;;;;;;;2.65;1.80;;;;;;;;;;5025959;28;20037;-47
2023/05/07 10:49:02;;;;;;;2.42;2.22;;;;;;;;;;5025414;28;20083;-45
2023/05/07 10:51:30;;;;;;;3.53;2.55;;;;;;;;;;5024690;28;20050;-43
2023/05/07 10:54:18;;;;;;;5.70;2.65;;;;;;;;;;5023692;28;20495;-43
2023/05/07 10:56:44;;;;;;;3.97;2.65;;;;;;;;;;5026874;28;20069;-44
2023/05/07 10:59:23;;;;;;;3.33;2.50;;;;;;;;;;5026618;28;20044;-48
2023/05/07 11:02:06;;;;;;;2.28;1.90;;;;;;;;;;5022797;28;20183;-48
2023/05/07 11:04:34;;;;;;;8.77;3.05;;;;;;;;;;5022314;28;20458;-42
2023/05/07 11:07:05;;;;;;;4.22;2.53;;;;;;;;;;5024156;28;20040;-44
2023/05/07 11:09:53;;;;;;;3.13;2.47;;;;;;;;;;5022122;28;20040;-46
2023/05/07 11:12:40;;;;;;;4.28;2.10;;;;;;;;;;5024437;28;20460;-48
2023/05/07 11:15:10;;;;;;;2.53;2.33;;;;;;;;;;5024873;28;20041;-45
2023/05/07 11:17:56;;;;;;;2.90;2.35;;;;;;;;;;5024706;28;20045;-45
2023/05/07 11:20:45;;;;;;;3.03;2.70;;;;;;;;;;5024364;28;20108;-44
2023/05/07 11:23:37;;;;;;;3.30;2.50;;;;;;;;;;5021769;28;20112;-43
2023/05/07 11:26:08;;;;;;;4.68;3.92;;;;;;;;;;5026878;28;20048;-48
2023/05/07 11:28:38;;;;;;;5.63;3.13;;;;;;;;;;5023052;28;20040;-40
2023/05/07 11:31:04;;;;;;;6.40;2.70;;;;;;;;;;5021462;28;20282;-45
2023/05/07 11:33:33;;;;;;;2.55;2.35;;;;;;;;;;5023110;28;20419;-42
2023/05/07 11:36:04;;;;;;;3.30;2.30;;;;;;;;;;5019804;28;20064;-48
2023/05/07 11:38:30;;;;;;;7.72;2.25;;;;;;;;;;5024859;28;20032;-46
2023/05/07 11:41:00;;;;;;;2.15;1.95;;;;;;;;;;5021972;28;20125;-49
2023/05/07 11:43:26;;;;;;;2.40;2.03;;;;;;;;;;5024387;28;20501;-44
2023/05/07 11:45:52;;;;;;;2.22;1.73;;;;;;;;;;5023095;28;20096;-49
2023/05/07 11:48:17;;;;;;;3.63;2.42;;;;;;;;;;5024644;28;20026;-48
2023/05/07 11:51:00;;;;;;;4.32;2.10;;;;;;;;;;5023730;28;20099;-52
2023/05/07 11:53:26;;;;;;;3.47;2.10;;;;;;;;;;5024783;28;20041;-49
2023/05/07 11:55:55;;;;;;;3.47;2.00;;;;;;;;;;5021977;28;20034;-42
2023/05/07 11:58:23;;;;;;;3.00;2.10;;;;;;;;;;5021644;28;20037;-45
2023/05/07 12:00:49;;;;;;;3.22;2.22;;;;;;;;;;5022703;28;20044;-49
2023/05/07 12:03:15;;;;;;;2.05;1.90;;;;;;;;;;5020652;28;21486;-43
2023/05/07 12:05:41;;;;;;;3.65;2.20;;;;;;;;;;5022731;28;20555;-45
2023/05/07 12:08:07;;;;;;;4.05;2.20;;;;;;;;;;5020656;28;20521;-48
2023/05/07 12:10:32;;;;;;;2.35;2.08;;;;;;;;;;5021173;28;20132;-43
2023/05/07 12:12:58;;;;;;;2.80;2.05;;;;;;;;;;5022595;28;20021;-48
2023/05/07 12:15:23;;;;;;;2.55;1.90;;;;;;;;;;5024457;28;20482;-51
2023/05/07 12:17:49;;;;;;;2.15;2.05;;;;;;;;;;5022282;28;20378;-46
2023/05/07 12:20:14;;;;;;;2.28;2.03;;;;;;;;;;5023075;28;20075;-47
2023/05/07 12:22:41;;;;;;;5.82;2.08;;;;;;;;;;5024320;28;20129;-42
2023/05/07 12:25:06;;;;;;;7.57;2.42;;;;;;;;;;5023037;28;22336;-41
2023/05/07 12:27:32;;;;;;;3.55;2.17;;;;;;;;;;5021091;28;20065;-46
2023/05/07 12:29:58;;;;;;;4.68;2.35;;;;;;;;;;5023481;28;20022;-44
2023/05/07 12:32:24;;;;;;;2.13;1.92;;;;;;;;;;5021503;28;20041;-44
2023/05/07 12:34:50;;;;;;;4.07;2.70;;;;;;;;;;5023105;28;20021;-45
2023/05/07 12:37:16;;;;;;;4.45;2.50;;;;;;;;;;5022118;28;20121;-45
2023/05/07 12:39:47;;;;;;;2.90;2.67;;;;;;;;;;5022964;28;20113;-47
2023/05/07 12:42:19;;;;;;;4.20;3.05;;;;;;;;;;5024071;28;20051;-43
2023/05/07 12:44:46;;;;;;;4.65;3.40;;;;;;;;;;5022878;28;20034;-48
2023/05/07 12:47:12;;;;;;;5.10;3.42;;;;;;;;;;5018851;28;20132;-43
2023/05/07 12:49:38;;;;;;;10.05;3.20;;;;;;;;;;5024979;28;20036;-45
2023/05/07 12:52:04;;;;;;;2.70;2.50;;;;;;;;;;5022203;28;20146;-51
2023/05/07 12:54:33;;;;;;;4.10;2.90;;;;;;;;;;5023526;28;20025;-49
2023/05/07 12:57:04;;;;;;;3.08;2.58;;;;;;;;;;5020722;28;20045;-51
2023/05/07 12:59:36;;;;;;;3.58;2.72;;;;;;;;;;5021737;28;20042;-48
2023/05/07 13:02:02;;;;;;;4.93;2.40;;;;;;;;;;5021243;28;20168;-51
2023/05/07 13:04:27;;;;;;;2.60;2.40;;;;;;;;;;5020157;28;20100;-44
2023/05/07 13:06:52;;;;;;;3.20;1.98;;;;;;;;;;5022278;28;20034;-44
2023/05/07 13:09:18;;;;;;;2.05;1.95;;;;;;;;;;5021672;28;20033;-42
2023/05/07 13:11:43;;;;;;;3.97;1.90;;;;;;;;;;5023713;28;20057;-42
2023/05/07 13:14:08;;;;;;;6.32;2.50;;;;;;;;;;5020959;28;20037;-44
2023/05/07 13:16:34;;;;;;;2.17;1.95;;;;;;;;;;5019476;28;20034;-41
2023/05/07 13:18:59;;;;;;;2.90;2.00;;;;;;;;;;5021346;28;20125;-44
2023/05/07 13:21:25;;;;;;;2.30;2.10;;;;;;;;;;5023270;28;20041;-44
2023/05/07 13:23:50;;;;;;;5.47;2.30;;;;;;;;;;5021091;28;20040;-45
2023/05/07 13:26:16;;;;;;;3.60;2.00;;;;;;;;;;5024083;28;20116;-49
2023/05/07 13:28:41;;;;;;;1.92;1.83;;;;;;;;;;5021271;28;20390;-46
2023/05/07 13:31:07;;;;;;;3.75;2.20;;;;;;;;;;5020073;28;20045;-42
2023/05/07 13:33:32;;;;;;;2.13;1.92;;;;;;;;;;5022350;28;20514;-44
2023/05/07 13:35:58;;;;;;;1.90;1.80;;;;;;;;;;5020032;28;20092;-41
2023/05/07 13:38:23;;;;;;;2.33;2.05;;;;;;;;;;5022968;28;20033;-44
2023/05/07 13:40:48;;;;;;;4.20;2.25;;;;;;;;;;5022095;28;20051;-44
2023/05/07 13:43:14;;;;;;;2.30;2.10;;;;;;;;;;5020827;28;20060;-43
2023/05/07 13:45:39;;;;;;;2.00;1.90;;;;;;;;;;5020305;28;20446;-48
2023/05/07 13:48:05;;;;;;;2.38;1.77;;;;;;;;;;5023140;28;20033;-49
2023/05/07 13:50:30;;;;;;;2.00;1.80;;;;;;;;;;5021700;28;20025;-45
2023/05/07 13:52:56;;;;;;;3.78;2.08;;;;;;;;;;5022922;28;20112;-43
2023/05/07 13:55:23;;;;;;;1.60;1.50;;;;;;;;;;5023415;28;20021;-44
2023/05/07 13:57:58;;;;;;;3.95;1.83;;;;;;;;;;5018730;28;20034;-46
2023/05/07 14:00:25;;;;;;;3.80;1.70;;;;;;;;;;5020363;28;20037;-44
2023/05/07 14:02:50;;;;;;;3.25;1.58;;;;;;;;;;5021932;28;20037;-44
2023/05/07 14:05:16;;;;;;;2.90;1.70;;;;;;;;;;5021776;28;20022;-46
2023/05/07 14:07:41;;;;;;;8.75;1.70;;;;;;;;;;5023541;28;20041;-46
2023/05/07 14:10:07;;;;;;;1.60;1.40;;;;;;;;;;5023321;28;20039;-43
2023/05/07 14:12:33;;;;;;;3.50;2.55;;;;;;;;;;5017687;28;20076;-45
2023/05/07 14:14:58;;;;;;;9.25;4.00;;;;;;;;;;5022939;28;20034;-44
2023/05/07 14:17:26;;;;;;;14.68;2.05;;;;;;;;;;5022808;28;20037;-46
2023/05/07 14:19:54;;;;;;;5.78;2.42;;;;;;;;;;5022950;28;20030;-49
2023/05/07 14:22:20;;;;;;;2.70;2.05;;;;;;;;;;5020631;28;20532;-45
2023/05/07 14:24:45;;;;;;;1.90;1.80;;;;;;;;;;5022467;28;20025;-47
2023/05/07 14:27:11;;;;;;;4.93;3.63;;;;;;;;;;5018559;28;20079;-44
2023/05/07 14:29:36;;;;;;;3.47;2.20;;;;;;;;;;5019945;28;20025;-45
2023/05/07 14:32:03;;;;;;;2.22;1.77;;;;;;;;;;5017280;28;20045;-43
2023/05/07 14:34:28;;;;;;;4.03;1.75;;;;;;;;;;5023310;28;20398;-46
2023/05/07 14:36:53;;;;;;;2.67;1.83;;;;;;;;;;5020082;28;20033;-50
2023/05/07 14:39:19;;;;;;;2.00;1.63;;;;;;;;;;5021572;28;20025;-49
2023/05/07 14:41:44;;;;;;;5.53;1.75;;;;;;;;;;5017496;28;20388;-46